Wye River — WDE3583 — position and weather

sailwx.info

Track history (hours):
 
Tides and Currents Weather Stations Pressure Air Temp Water Temp Dewpoint Dewpoint Depression Visibility Wind Speed Wind Dir Waves Ship Positions

Wye River

Owner: Vane Line Bunkering, Inc., Philadelphia, PA. More information available from US FCC via Universal Licensing System and Coast Guard Vessel Documentation Center.

Last reported at 2018-Feb-18 15:44 UTC. Time now 2018-Feb-18 20:40 UTC.
Position N 36°44' W 075°51'.

Length 30 m; draft 4.3 m.

Type: Tow > 200 m length. MMSI: 367341190.

Date/timePositionNaut miles runAvg speedWind from/ knotsBaromVisibWave heightAir tempDewpointWater temp
2018-Feb-18 15:44N 36°44' W 075°51'2 9.3
2018-Feb-18 15:30N 36°46' W 075°52'5 9.3
2018-Feb-18 14:58N 36°51' W 075°52'183 9.3
2018-Feb-17 19:23N 39°33' W 074°05'4 9.4
2018-Feb-17 18:58N 39°37' W 074°03'4 9.4
2018-Feb-17 18:30N 39°41' W 074°02'48 9.6
2018-Feb-17 13:26N 40°29' W 073°55'4 8.4
2018-Feb-17 13:00N 40°31' W 073°60'4 7.6
2018-Feb-17 12:30N 40°34' W 074°02'4 8.1
2018-Feb-17 12:00N 40°38' W 074°03'2 4.2
2018-Feb-17 11:30N 40°40' W 074°01'0 0.3
2018-Feb-17 11:00N 40°40' W 074°00'0 0.1
2018-Feb-17 10:30N 40°40' W 074°00'0 0.0
2018-Feb-17 10:00N 40°40' W 074°00'0 0.0
2018-Feb-17 09:30N 40°40' W 074°00'0 0.0
2018-Feb-17 09:00N 40°40' W 074°00'0 0.0
2018-Feb-17 08:30N 40°40' W 074°00'0 0.0
2018-Feb-17 08:00N 40°40' W 074°00'0 0.0
2018-Feb-17 07:30N 40°40' W 074°00'0 0.0
2018-Feb-17 07:00N 40°40' W 074°00'0 0.0
2018-Feb-17 06:30N 40°40' W 074°00'0 0.1
2018-Feb-17 06:00N 40°40' W 074°01'0 0.2
2018-Feb-17 05:30N 40°40' W 074°00'0 0.0
2018-Feb-17 05:00N 40°40' W 074°00'3 5.0
2018-Feb-17 04:30N 40°39' W 074°03'2 3.0
2018-Feb-17 03:58N 40°39' W 074°05'0 0.0
2018-Feb-17 03:30N 40°39' W 074°05'0 0.0
2018-Feb-17 03:00N 40°39' W 074°05'0 0.0
2018-Feb-17 02:30N 40°39' W 074°05'0 0.0
2018-Feb-17 02:00N 40°39' W 074°05'0 0.0
2018-Feb-17 01:30N 40°39' W 074°05'0 0.0
2018-Feb-17 01:00N 40°39' W 074°05'1 2.8
2018-Feb-17 00:30N 40°39' W 074°04'3 5.9
2018-Feb-17 00:00N 40°40' W 074°00'0 0.0
2018-Feb-16 23:30N 40°40' W 074°00'0 0.0
2018-Feb-16 23:00N 40°40' W 074°00'0 0.0
2018-Feb-16 22:30N 40°40' W 074°00'0 0.0
2018-Feb-16 22:00N 40°40' W 074°00'0 0.0
2018-Feb-16 21:30N 40°40' W 074°00'0 0.0
2018-Feb-16 21:00N 40°40' W 074°00'0 0.0
2018-Feb-16 20:30N 40°40' W 074°00'0 0.0
2018-Feb-16 20:00N 40°40' W 074°00'0 0.0
2018-Feb-16 19:30N 40°40' W 074°00'0 0.0
2018-Feb-16 19:00N 40°40' W 074°00'0 0.0
2018-Feb-16 18:30N 40°40' W 074°00'0 0.0
2018-Feb-16 18:00N 40°40' W 074°00'0 0.0
2018-Feb-16 17:30N 40°40' W 074°00'0 0.5
2018-Feb-16 17:00N 40°40' W 074°00'1 2.9
2018-Feb-16 16:30N 40°41' W 074°02'5 9.4
2018-Feb-16 16:00N 40°46' W 074°01'4 8.5
2018-Feb-16 15:30N 40°49' W 073°58'4 7.8
2018-Feb-16 15:00N 40°53' W 073°56'3 5.8
2018-Feb-16 14:29N 40°56' W 073°55'0 0.2
2018-Feb-16 14:00N 40°56' W 073°55'0 0.0
2018-Feb-16 13:30N 40°56' W 073°55'0 0.0
2018-Feb-16 13:00N 40°56' W 073°55'0 0.1
2018-Feb-16 11:56N 40°56' W 073°55'0 0.2
2018-Feb-16 11:30N 40°56' W 073°55'0 0.0
2018-Feb-16 10:59N 40°56' W 073°55'0 0.0
2018-Feb-16 10:30N 40°56' W 073°55'0 0.0
2018-Feb-16 10:00N 40°56' W 073°55'0 0.0
2018-Feb-16 09:28N 40°56' W 073°55'0 0.0
2018-Feb-16 08:59N 40°56' W 073°55'0 0.0
2018-Feb-16 08:29N 40°56' W 073°55'0 0.0
2018-Feb-16 07:56N 40°56' W 073°55'0 0.0
2018-Feb-16 07:30N 40°56' W 073°55'0 0.0
2018-Feb-16 06:58N 40°56' W 073°55'0 0.1
2018-Feb-16 06:30N 40°56' W 073°55'0 0.0
2018-Feb-16 05:59N 40°56' W 073°55'0 0.2
2018-Feb-16 05:29N 40°56' W 073°55'0 0.2
2018-Feb-16 04:53N 40°56' W 073°55'0 0.0
2018-Feb-16 04:29N 40°56' W 073°55'0 0.0
2018-Feb-16 03:56N 40°56' W 073°55'0 0.0
2018-Feb-16 03:30N 40°56' W 073°55'0 0.0
2018-Feb-16 02:59N 40°56' W 073°55'0 0.0
2018-Feb-16 02:30N 40°56' W 073°55'0 0.0
2018-Feb-16 02:00N 40°56' W 073°55'0 0.0
2018-Feb-16 01:27N 40°56' W 073°55'0 0.1
2018-Feb-16 00:59N 40°56' W 073°55'0 0.2
2018-Feb-16 00:29N 40°56' W 073°55'0 0.2
2018-Feb-16 00:00N 40°56' W 073°55'0 0.0
2018-Feb-15 23:30N 40°56' W 073°55'2 0.0
2018-Feb-14 00:44N 40°57' W 073°54'2 8.3
2018-Feb-14 00:28N 40°55' W 073°55'4 8.1
2018-Feb-14 00:00N 40°52' W 073°57'4 8.6
2018-Feb-13 23:30N 40°48' W 073°59'4 8.4
2018-Feb-13 23:00N 40°44' W 074°01'4 8.1
2018-Feb-13 22:30N 40°40' W 074°03'4 7.8
2018-Feb-13 22:00N 40°36' W 074°02'1 2.2
2018-Feb-13 21:30N 40°36' W 074°01'0 0.1
2018-Feb-13 21:00N 40°36' W 074°01'0 0.1
2018-Feb-13 20:30N 40°35' W 074°01'0 0.1
2018-Feb-13 20:00N 40°35' W 074°01'0 0.0
2018-Feb-13 19:30N 40°35' W 074°01'0 0.1
2018-Feb-13 19:00N 40°35' W 074°01'0 0.1
2018-Feb-13 18:30N 40°35' W 074°01'0 0.0
2018-Feb-13 18:00N 40°35' W 074°01'0 0.0
2018-Feb-13 17:30N 40°35' W 074°01'0 0.0
2018-Feb-13 17:00N 40°35' W 074°01'0 0.0
2018-Feb-13 16:30N 40°35' W 074°01'0 0.0
2018-Feb-13 16:00N 40°35' W 074°01'0 0.4
2018-Feb-13 15:30N 40°35' W 074°01'1 1.7
2018-Feb-13 15:00N 40°35' W 074°02'2 3.6
2018-Feb-13 14:30N 40°33' W 074°01'3 6.7
2018-Feb-13 13:59N 40°31' W 073°58'4 7.0
2018-Feb-13 13:23N 40°27' W 073°54'39 8.3
2018-Feb-13 08:41N 39°48' W 073°57'3 8.3
2018-Feb-13 08:18N 39°45' W 073°58'3 8.2
2018-Feb-13 07:59N 39°43' W 073°59'189 7.5
2018-Feb-12 06:55N 36°56' W 075°53'3 6.7
2018-Feb-12 06:30N 36°56' W 075°56'4 7.4
2018-Feb-12 06:00N 36°57' W 076°01'4 7.4
2018-Feb-12 05:30N 36°58' W 076°05'3 7.0
2018-Feb-12 05:00N 36°59' W 076°09'3 6.8
2018-Feb-12 04:30N 36°60' W 076°13'4 7.2
2018-Feb-12 03:59N 36°60' W 076°18'3 6.6
2018-Feb-12 03:30N 36°58' W 076°21'0 0.9
2018-Feb-12 02:59N 36°57' W 076°21'0 0.0
2018-Feb-12 02:28N 36°57' W 076°21'0 0.0
2018-Feb-12 02:00N 36°57' W 076°21'0 0.0
2018-Feb-12 01:30N 36°57' W 076°21'0 0.0
2018-Feb-12 00:56N 36°57' W 076°21'0 0.0
2018-Feb-12 00:26N 36°57' W 076°21'0 0.0
2018-Feb-12 00:00N 36°57' W 076°21'0 0.0
2018-Feb-11 23:30N 36°57' W 076°21'0 0.0
2018-Feb-11 23:00N 36°57' W 076°21'0 0.0
2018-Feb-11 22:29N 36°57' W 076°21'0 0.0
2018-Feb-11 21:59N 36°57' W 076°21'0 0.0
2018-Feb-11 21:29N 36°57' W 076°21'0 0.0
2018-Feb-11 20:58N 36°57' W 076°21'0 0.0
2018-Feb-11 20:27N 36°57' W 076°21'0 0.0
2018-Feb-11 19:59N 36°57' W 076°21'0 0.0
2018-Feb-11 19:26N 36°57' W 076°21'0 0.0
2018-Feb-11 19:00N 36°57' W 076°21'0 0.0
2018-Feb-11 18:28N 36°57' W 076°21'0 0.0
2018-Feb-11 17:59N 36°57' W 076°21'0 0.0
2018-Feb-11 17:29N 36°57' W 076°21'0 0.0
2018-Feb-11 16:59N 36°57' W 076°21'0 0.0
2018-Feb-11 16:30N 36°57' W 076°21'0 0.0
2018-Feb-11 15:59N 36°57' W 076°21'0 0.0
2018-Feb-11 15:27N 36°57' W 076°21'0 0.0
2018-Feb-11 14:58N 36°57' W 076°21'0 0.0
2018-Feb-11 14:27N 36°57' W 076°21'0 0.0
2018-Feb-11 13:57N 36°57' W 076°21'0 0.0
2018-Feb-11 13:26N 36°57' W 076°21'0 0.0
2018-Feb-11 13:00N 36°57' W 076°21'0 0.0
2018-Feb-11 12:30N 36°57' W 076°21'0 0.0
2018-Feb-11 12:00N 36°57' W 076°21'0 0.0
2018-Feb-11 11:29N 36°57' W 076°21'0 0.0
2018-Feb-11 10:59N 36°57' W 076°21'0 0.0
2018-Feb-11 10:29N 36°57' W 076°21'0 0.0
2018-Feb-11 09:58N 36°57' W 076°21'0 0.0
2018-Feb-11 09:28N 36°57' W 076°21'0 0.0
2018-Feb-11 08:57N 36°57' W 076°21'0 0.0
2018-Feb-11 08:27N 36°57' W 076°21'0 0.0
2018-Feb-11 07:56N 36°57' W 076°21'0 0.0
2018-Feb-11 07:26N 36°57' W 076°21'0 0.1
2018-Feb-11 07:00N 36°57' W 076°21'0 0.1
2018-Feb-11 06:29N 36°57' W 076°21'1 1.4
2018-Feb-11 05:59N 36°57' W 076°20'4 8.2
2018-Feb-11 05:30N 36°53' W 076°20'3 6.8
2018-Feb-11 05:00N 36°50' W 076°18'2 3.8
2018-Feb-11 04:30N 36°48' W 076°17'0 0.0
2018-Feb-11 04:00N 36°48' W 076°17'0 0.0
2018-Feb-11 03:30N 36°48' W 076°17'0 0.0
2018-Feb-11 03:00N 36°48' W 076°17'0 0.0
2018-Feb-11 02:30N 36°48' W 076°17'0 0.0
2018-Feb-11 02:00N 36°48' W 076°17'0 0.0
2018-Feb-11 01:31N 36°48' W 076°17'0 0.0
2018-Feb-11 01:00N 36°48' W 076°17'0 0.0
2018-Feb-11 00:30N 36°48' W 076°17'0 0.0
2018-Feb-11 00:00N 36°48' W 076°17'0 0.0
2018-Feb-10 23:30N 36°48' W 076°17'0 0.0
2018-Feb-10 23:00N 36°48' W 076°17'0 0.0
2018-Feb-10 22:30N 36°48' W 076°17'0 0.0
2018-Feb-10 22:00N 36°48' W 076°17'0 0.0
2018-Feb-10 21:30N 36°48' W 076°17'0 0.0
2018-Feb-10 21:00N 36°48' W 076°17'0 0.0
2018-Feb-10 20:30N 36°48' W 076°17'0 0.0
2018-Feb-10 20:00N 36°48' W 076°17'2 3.8
2018-Feb-10 19:30N 36°50' W 076°18'3 6.3
2018-Feb-10 19:00N 36°53' W 076°20'5 8.2
2018-Feb-10 18:26N 36°57' W 076°20'4 7.0
2018-Feb-10 17:56N 37°00' W 076°17'3 8.3
2018-Feb-10 17:30N 37°00' W 076°13'4 8.7
2018-Feb-10 17:00N 36°59' W 076°08'4 8.8
2018-Feb-10 16:30N 36°57' W 076°03'1 2.2
2018-Feb-10 16:00N 36°57' W 076°01'3 5.7
2018-Feb-10 15:30N 36°56' W 075°58'4 7.6
2018-Feb-10 15:00N 36°53' W 075°55'  
Track history (hours):
 
Tides and Currents Weather Stations Pressure Air Temp Water Temp Dewpoint Dewpoint Depression Visibility Wind Speed Wind Dir Waves Ship Positions

Wye River

Owner: Vane Line Bunkering, Inc., Philadelphia, PA. More information available from US FCC via Universal Licensing System and Coast Guard Vessel Documentation Center.

Last reported at 2018-Feb-18 15:44 UTC. Time now 2018-Feb-18 20:40 UTC.
Position N 36°44' W 075°51'.

Length 30 m; draft 4.3 m.

Type: Tow > 200 m length. MMSI: 367341190.

Date/timePositionNaut miles runAvg speedWind from/ knotsBaromVisibWave heightAir tempDewpointWater temp
2018-Feb-18 15:44N 36°44' W 075°51'2 9.3
2018-Feb-18 15:30N 36°46' W 075°52'5 9.3
2018-Feb-18 14:58N 36°51' W 075°52'183 9.3
2018-Feb-17 19:23N 39°33' W 074°05'4 9.4
2018-Feb-17 18:58N 39°37' W 074°03'4 9.4
2018-Feb-17 18:30N 39°41' W 074°02'48 9.6
2018-Feb-17 13:26N 40°29' W 073°55'4 8.4
2018-Feb-17 13:00N 40°31' W 073°60'4 7.6
2018-Feb-17 12:30N 40°34' W 074°02'4 8.1
2018-Feb-17 12:00N 40°38' W 074°03'2 4.2
2018-Feb-17 11:30N 40°40' W 074°01'0 0.3
2018-Feb-17 11:00N 40°40' W 074°00'0 0.1
2018-Feb-17 10:30N 40°40' W 074°00'0 0.0
2018-Feb-17 10:00N 40°40' W 074°00'0 0.0
2018-Feb-17 09:30N 40°40' W 074°00'0 0.0
2018-Feb-17 09:00N 40°40' W 074°00'0 0.0
2018-Feb-17 08:30N 40°40' W 074°00'0 0.0
2018-Feb-17 08:00N 40°40' W 074°00'0 0.0
2018-Feb-17 07:30N 40°40' W 074°00'0 0.0
2018-Feb-17 07:00N 40°40' W 074°00'0 0.0
2018-Feb-17 06:30N 40°40' W 074°00'0 0.1
2018-Feb-17 06:00N 40°40' W 074°01'0 0.2
2018-Feb-17 05:30N 40°40' W 074°00'0 0.0
2018-Feb-17 05:00N 40°40' W 074°00'3 5.0
2018-Feb-17 04:30N 40°39' W 074°03'2 3.0
2018-Feb-17 03:58N 40°39' W 074°05'0 0.0
2018-Feb-17 03:30N 40°39' W 074°05'0 0.0
2018-Feb-17 03:00N 40°39' W 074°05'0 0.0
2018-Feb-17 02:30N 40°39' W 074°05'0 0.0
2018-Feb-17 02:00N 40°39' W 074°05'0 0.0
2018-Feb-17 01:30N 40°39' W 074°05'0 0.0
2018-Feb-17 01:00N 40°39' W 074°05'1 2.8
2018-Feb-17 00:30N 40°39' W 074°04'3 5.9
2018-Feb-17 00:00N 40°40' W 074°00'0 0.0
2018-Feb-16 23:30N 40°40' W 074°00'0 0.0
2018-Feb-16 23:00N 40°40' W 074°00'0 0.0
2018-Feb-16 22:30N 40°40' W 074°00'0 0.0
2018-Feb-16 22:00N 40°40' W 074°00'0 0.0
2018-Feb-16 21:30N 40°40' W 074°00'0 0.0
2018-Feb-16 21:00N 40°40' W 074°00'0 0.0
2018-Feb-16 20:30N 40°40' W 074°00'0 0.0
2018-Feb-16 20:00N 40°40' W 074°00'0 0.0
2018-Feb-16 19:30N 40°40' W 074°00'0 0.0
2018-Feb-16 19:00N 40°40' W 074°00'0 0.0
2018-Feb-16 18:30N 40°40' W 074°00'0 0.0
2018-Feb-16 18:00N 40°40' W 074°00'0 0.0
2018-Feb-16 17:30N 40°40' W 074°00'0 0.5
2018-Feb-16 17:00N 40°40' W 074°00'1 2.9
2018-Feb-16 16:30N 40°41' W 074°02'5 9.4
2018-Feb-16 16:00N 40°46' W 074°01'4 8.5
2018-Feb-16 15:30N 40°49' W 073°58'4 7.8
2018-Feb-16 15:00N 40°53' W 073°56'3 5.8
2018-Feb-16 14:29N 40°56' W 073°55'0 0.2
2018-Feb-16 14:00N 40°56' W 073°55'0 0.0
2018-Feb-16 13:30N 40°56' W 073°55'0 0.0
2018-Feb-16 13:00N 40°56' W 073°55'0 0.1
2018-Feb-16 11:56N 40°56' W 073°55'0 0.2
2018-Feb-16 11:30N 40°56' W 073°55'0 0.0
2018-Feb-16 10:59N 40°56' W 073°55'0 0.0
2018-Feb-16 10:30N 40°56' W 073°55'0 0.0
2018-Feb-16 10:00N 40°56' W 073°55'0 0.0
2018-Feb-16 09:28N 40°56' W 073°55'0 0.0
2018-Feb-16 08:59N 40°56' W 073°55'0 0.0
2018-Feb-16 08:29N 40°56' W 073°55'0 0.0
2018-Feb-16 07:56N 40°56' W 073°55'0 0.0
2018-Feb-16 07:30N 40°56' W 073°55'0 0.0
2018-Feb-16 06:58N 40°56' W 073°55'0 0.1
2018-Feb-16 06:30N 40°56' W 073°55'0 0.0
2018-Feb-16 05:59N 40°56' W 073°55'0 0.2
2018-Feb-16 05:29N 40°56' W 073°55'0 0.2
2018-Feb-16 04:53N 40°56' W 073°55'0 0.0
2018-Feb-16 04:29N 40°56' W 073°55'0 0.0
2018-Feb-16 03:56N 40°56' W 073°55'0 0.0
2018-Feb-16 03:30N 40°56' W 073°55'0 0.0
2018-Feb-16 02:59N 40°56' W 073°55'0 0.0
2018-Feb-16 02:30N 40°56' W 073°55'0 0.0
2018-Feb-16 02:00N 40°56' W 073°55'0 0.0
2018-Feb-16 01:27N 40°56' W 073°55'0 0.1
2018-Feb-16 00:59N 40°56' W 073°55'0 0.2
2018-Feb-16 00:29N 40°56' W 073°55'0 0.2
2018-Feb-16 00:00N 40°56' W 073°55'0 0.0
2018-Feb-15 23:30N 40°56' W 073°55'2 0.0
2018-Feb-14 00:44N 40°57' W 073°54'2 8.3
2018-Feb-14 00:28N 40°55' W 073°55'4 8.1
2018-Feb-14 00:00N 40°52' W 073°57'4 8.6
2018-Feb-13 23:30N 40°48' W 073°59'4 8.4
2018-Feb-13 23:00N 40°44' W 074°01'4 8.1
2018-Feb-13 22:30N 40°40' W 074°03'4 7.8
2018-Feb-13 22:00N 40°36' W 074°02'1 2.2
2018-Feb-13 21:30N 40°36' W 074°01'0 0.1
2018-Feb-13 21:00N 40°36' W 074°01'0 0.1
2018-Feb-13 20:30N 40°35' W 074°01'0 0.1
2018-Feb-13 20:00N 40°35' W 074°01'0 0.0
2018-Feb-13 19:30N 40°35' W 074°01'0 0.1
2018-Feb-13 19:00N 40°35' W 074°01'0 0.1
2018-Feb-13 18:30N 40°35' W 074°01'0 0.0
2018-Feb-13 18:00N 40°35' W 074°01'0 0.0
2018-Feb-13 17:30N 40°35' W 074°01'0 0.0
2018-Feb-13 17:00N 40°35' W 074°01'0 0.0
2018-Feb-13 16:30N 40°35' W 074°01'0 0.0
2018-Feb-13 16:00N 40°35' W 074°01'0 0.4
2018-Feb-13 15:30N 40°35' W 074°01'1 1.7
2018-Feb-13 15:00N 40°35' W 074°02'2 3.6
2018-Feb-13 14:30N 40°33' W 074°01'3 6.7
2018-Feb-13 13:59N 40°31' W 073°58'4 7.0
2018-Feb-13 13:23N 40°27' W 073°54'39 8.3
2018-Feb-13 08:41N 39°48' W 073°57'3 8.3
2018-Feb-13 08:18N 39°45' W 073°58'3 8.2
2018-Feb-13 07:59N 39°43' W 073°59'189 7.5
2018-Feb-12 06:55N 36°56' W 075°53'3 6.7
2018-Feb-12 06:30N 36°56' W 075°56'4 7.4
2018-Feb-12 06:00N 36°57' W 076°01'4 7.4
2018-Feb-12 05:30N 36°58' W 076°05'3 7.0
2018-Feb-12 05:00N 36°59' W 076°09'3 6.8
2018-Feb-12 04:30N 36°60' W 076°13'4 7.2
2018-Feb-12 03:59N 36°60' W 076°18'3 6.6
2018-Feb-12 03:30N 36°58' W 076°21'0 0.9
2018-Feb-12 02:59N 36°57' W 076°21'0 0.0
2018-Feb-12 02:28N 36°57' W 076°21'0 0.0
2018-Feb-12 02:00N 36°57' W 076°21'0 0.0
2018-Feb-12 01:30N 36°57' W 076°21'0 0.0
2018-Feb-12 00:56N 36°57' W 076°21'0 0.0
2018-Feb-12 00:26N 36°57' W 076°21'0 0.0
2018-Feb-12 00:00N 36°57' W 076°21'0 0.0
2018-Feb-11 23:30N 36°57' W 076°21'0 0.0
2018-Feb-11 23:00N 36°57' W 076°21'0 0.0
2018-Feb-11 22:29N 36°57' W 076°21'0 0.0
2018-Feb-11 21:59N 36°57' W 076°21'0 0.0
2018-Feb-11 21:29N 36°57' W 076°21'0 0.0
2018-Feb-11 20:58N 36°57' W 076°21'0 0.0
2018-Feb-11 20:27N 36°57' W 076°21'0 0.0
2018-Feb-11 19:59N 36°57' W 076°21'0 0.0
2018-Feb-11 19:26N 36°57' W 076°21'0 0.0
2018-Feb-11 19:00N 36°57' W 076°21'0 0.0
2018-Feb-11 18:28N 36°57' W 076°21'0 0.0
2018-Feb-11 17:59N 36°57' W 076°21'0 0.0
2018-Feb-11 17:29N 36°57' W 076°21'0 0.0
2018-Feb-11 16:59N 36°57' W 076°21'0 0.0
2018-Feb-11 16:30N 36°57' W 076°21'0 0.0
2018-Feb-11 15:59N 36°57' W 076°21'0 0.0
2018-Feb-11 15:27N 36°57' W 076°21'0 0.0
2018-Feb-11 14:58N 36°57' W 076°21'0 0.0
2018-Feb-11 14:27N 36°57' W 076°21'0 0.0
2018-Feb-11 13:57N 36°57' W 076°21'0 0.0
2018-Feb-11 13:26N 36°57' W 076°21'0 0.0
2018-Feb-11 13:00N 36°57' W 076°21'0 0.0
2018-Feb-11 12:30N 36°57' W 076°21'0 0.0
2018-Feb-11 12:00N 36°57' W 076°21'0 0.0
2018-Feb-11 11:29N 36°57' W 076°21'0 0.0
2018-Feb-11 10:59N 36°57' W 076°21'0 0.0
2018-Feb-11 10:29N 36°57' W 076°21'0 0.0
2018-Feb-11 09:58N 36°57' W 076°21'0 0.0
2018-Feb-11 09:28N 36°57' W 076°21'0 0.0
2018-Feb-11 08:57N 36°57' W 076°21'0 0.0
2018-Feb-11 08:27N 36°57' W 076°21'0 0.0
2018-Feb-11 07:56N 36°57' W 076°21'0 0.0
2018-Feb-11 07:26N 36°57' W 076°21'0 0.1
2018-Feb-11 07:00N 36°57' W 076°21'0 0.1
2018-Feb-11 06:29N 36°57' W 076°21'1 1.4
2018-Feb-11 05:59N 36°57' W 076°20'4 8.2
2018-Feb-11 05:30N 36°53' W 076°20'3 6.8
2018-Feb-11 05:00N 36°50' W 076°18'2 3.8
2018-Feb-11 04:30N 36°48' W 076°17'0 0.0
2018-Feb-11 04:00N 36°48' W 076°17'0 0.0
2018-Feb-11 03:30N 36°48' W 076°17'0 0.0
2018-Feb-11 03:00N 36°48' W 076°17'0 0.0
2018-Feb-11 02:30N 36°48' W 076°17'0 0.0
2018-Feb-11 02:00N 36°48' W 076°17'0 0.0
2018-Feb-11 01:31N 36°48' W 076°17'0 0.0
2018-Feb-11 01:00N 36°48' W 076°17'0 0.0
2018-Feb-11 00:30N 36°48' W 076°17'0 0.0
2018-Feb-11 00:00N 36°48' W 076°17'0 0.0
2018-Feb-10 23:30N 36°48' W 076°17'0 0.0
2018-Feb-10 23:00N 36°48' W 076°17'0 0.0
2018-Feb-10 22:30N 36°48' W 076°17'0 0.0
2018-Feb-10 22:00N 36°48' W 076°17'0 0.0
2018-Feb-10 21:30N 36°48' W 076°17'0 0.0
2018-Feb-10 21:00N 36°48' W 076°17'0 0.0
2018-Feb-10 20:30N 36°48' W 076°17'0 0.0
2018-Feb-10 20:00N 36°48' W 076°17'2 3.8
2018-Feb-10 19:30N 36°50' W 076°18'3 6.3
2018-Feb-10 19:00N 36°53' W 076°20'5 8.2
2018-Feb-10 18:26N 36°57' W 076°20'4 7.0
2018-Feb-10 17:56N 37°00' W 076°17'3 8.3
2018-Feb-10 17:30N 37°00' W 076°13'4 8.7
2018-Feb-10 17:00N 36°59' W 076°08'4 8.8
2018-Feb-10 16:30N 36°57' W 076°03'1 2.2
2018-Feb-10 16:00N 36°57' W 076°01'3 5.7
2018-Feb-10 15:30N 36°56' W 075°58'4 7.6
2018-Feb-10 15:00N 36°53' W 075°55'  

Dump ship's entire track history